createdAt,value
2022-11-28T00:03:08.847Z,10.57
2022-11-28T00:08:12.079Z,9.93
2022-11-28T00:13:15.094Z,10.67
2022-11-28T00:18:19.359Z,10.70
2022-11-28T00:23:22.306Z,11.50
2022-11-28T00:28:25.588Z,11.27
2022-11-28T00:33:29.863Z,11.17
2022-11-28T00:38:32.974Z,13.40
2022-11-28T00:43:36.057Z,12.47
2022-11-28T00:48:40.393Z,13.23
2022-11-28T00:53:44.943Z,13.60
2022-11-28T00:58:49.680Z,12.60
2022-11-28T01:03:55.948Z,12.93
2022-11-28T01:09:00.298Z,11.60
2022-11-28T01:14:03.497Z,13.10
2022-11-28T01:19:08.529Z,12.03
2022-11-28T01:24:11.821Z,12.00
2022-11-28T01:29:14.983Z,12.47
2022-11-28T01:34:19.293Z,13.63
2022-11-28T01:39:22.228Z,14.93
2022-11-28T01:45:02.428Z,15.67
2022-11-28T01:50:08.780Z,14.73
2022-11-28T01:55:13.698Z,15.00
2022-11-28T02:00:20.265Z,18.10
2022-11-28T02:05:24.642Z,14.20
2022-11-28T02:10:30.287Z,16.03
2022-11-28T02:15:49.913Z,14.63
2022-11-28T02:21:16.819Z,14.50
2022-11-28T02:26:42.104Z,14.43
2022-11-28T02:32:14.852Z,17.33
2022-11-28T02:37:27.356Z,14.30
2022-11-28T02:42:37.022Z,17.10
2022-11-28T02:47:46.197Z,13.97
2022-11-28T02:52:53.179Z,15.43
2022-11-28T02:57:56.476Z,13.03
2022-11-28T03:03:24.442Z,10.60
2022-11-28T03:08:38.516Z,10.03
2022-11-28T03:13:50.221Z,8.90
2022-11-28T03:19:02.206Z,10.13
2022-11-28T03:24:11.832Z,9.20
2022-11-28T03:29:22.022Z,8.53
2022-11-28T03:34:32.978Z,9.53
2022-11-28T03:39:40.355Z,9.10
2022-11-28T03:44:49.880Z,9.67
2022-11-28T03:49:56.299Z,8.60
2022-11-28T03:55:04.808Z,9.67
2022-11-28T04:00:10.615Z,9.80
2022-11-28T04:05:23.769Z,10.63
2022-11-28T04:10:33.964Z,9.50
2022-11-28T04:15:42.714Z,10.10
2022-11-28T04:20:53.770Z,8.83
2022-11-28T04:26:01.726Z,10.33
2022-11-28T04:31:07.057Z,10.00
2022-11-28T04:36:13.857Z,9.37
2022-11-28T04:41:21.480Z,11.20
2022-11-28T04:46:28.713Z,11.07
2022-11-28T04:51:40.644Z,9.90
2022-11-28T04:56:48.697Z,11.83
2022-11-28T05:01:51.764Z,12.70
2022-11-28T05:07:04.321Z,11.10
2022-11-28T05:12:08.018Z,11.07
2022-11-28T05:17:13.465Z,10.50
2022-11-28T05:22:17.718Z,10.93
2022-11-28T05:27:20.633Z,13.20
2022-11-28T05:32:23.493Z,10.97
2022-11-28T05:37:27.883Z,10.93
2022-11-28T05:42:34.616Z,11.90
2022-11-28T05:47:37.549Z,12.03
2022-11-28T05:52:41.775Z,11.43
2022-11-28T05:57:44.664Z,11.47
2022-11-28T06:02:47.612Z,11.13
2022-11-28T06:07:51.998Z,10.23
2022-11-28T06:12:54.951Z,10.80
2022-11-28T06:17:57.891Z,11.70
2022-11-28T06:23:02.172Z,10.30
2022-11-28T06:28:05.328Z,10.63
2022-11-28T06:33:08.246Z,11.63
2022-11-28T06:38:14.331Z,11.40
2022-11-28T06:43:17.629Z,10.73
2022-11-28T06:48:20.949Z,10.63
2022-11-28T06:53:31.248Z,10.77
2022-11-28T06:58:34.677Z,10.17
2022-11-28T07:03:37.660Z,10.47
2022-11-28T07:08:42.927Z,10.93
2022-11-28T07:13:46.660Z,11.67
2022-11-28T07:18:50.221Z,10.40
2022-11-28T07:23:54.584Z,11.10
2022-11-28T07:28:58.349Z,10.80
2022-11-28T07:34:03.454Z,10.97
2022-11-28T07:39:09.431Z,11.60
2022-11-28T07:44:13.091Z,13.20
2022-11-28T07:49:16.348Z,11.07
2022-11-28T07:54:20.675Z,11.77
2022-11-28T07:59:23.672Z,11.57
2022-11-28T08:04:26.676Z,11.33
2022-11-28T08:09:32.612Z,11.60
2022-11-28T08:14:35.580Z,11.23
2022-11-28T08:19:38.556Z,11.60
2022-11-28T08:24:43.061Z,11.03
2022-11-28T08:29:50.475Z,10.97
2022-11-28T08:34:56.045Z,11.60
2022-11-28T08:40:00.352Z,10.27
2022-11-28T08:45:03.344Z,9.30
2022-11-28T08:50:07.858Z,9.77
2022-11-28T08:55:12.273Z,8.83
2022-11-28T09:00:16.629Z,10.90
2022-11-28T09:05:19.581Z,9.37
2022-11-28T09:10:24.897Z,11.30
2022-11-28T09:15:27.824Z,9.27
2022-11-28T09:20:30.748Z,9.47
2022-11-28T09:25:37.176Z,9.83
2022-11-28T09:30:40.162Z,8.67
2022-11-28T09:35:43.225Z,9.93
2022-11-28T09:40:47.777Z,10.00
2022-11-28T09:45:53.907Z,10.23
2022-11-28T09:51:01.754Z,8.60
2022-11-28T09:56:12.768Z,9.30
2022-11-28T10:01:22.356Z,14.07
2022-11-28T10:06:29.821Z,10.37
2022-11-28T10:11:45.932Z,10.53
2022-11-28T10:16:59.737Z,11.00
2022-11-28T10:22:06.232Z,11.43
2022-11-28T10:27:14.668Z,12.00
2022-11-28T10:32:20.355Z,10.30
2022-11-28T10:37:27.254Z,10.13
2022-11-28T10:42:43.612Z,9.83
2022-11-28T10:48:07.434Z,9.90
2022-11-28T10:53:36.562Z,11.10
2022-11-28T10:58:47.960Z,11.40
2022-11-28T11:03:51.224Z,10.33
2022-11-28T11:08:54.095Z,10.60
2022-11-28T11:14:02.160Z,11.23
2022-11-28T11:19:05.039Z,10.37
2022-11-28T11:24:18.685Z,10.43
2022-11-28T11:29:30.674Z,10.73
2022-11-28T11:34:39.049Z,10.87
2022-11-28T11:39:49.482Z,11.80
2022-11-28T11:44:54.318Z,11.47
2022-11-28T11:50:05.376Z,10.63
2022-11-28T11:55:14.891Z,10.60
2022-11-28T12:00:22.000Z,10.50
2022-11-28T12:05:46.316Z,9.50
2022-11-28T12:11:01.890Z,10.00
2022-11-28T12:16:12.218Z,10.13
2022-11-28T12:21:21.236Z,9.50
2022-11-28T12:26:33.906Z,10.20
2022-11-28T12:31:50.945Z,9.63
2022-11-28T12:37:01.371Z,9.90
2022-11-28T12:42:30.770Z,11.13
2022-11-28T12:47:44.175Z,10.73
2022-11-28T12:52:54.522Z,10.40
2022-11-28T12:58:09.039Z,10.67
2022-11-28T13:03:29.759Z,9.77
2022-11-28T13:09:03.021Z,11.40
2022-11-28T13:14:11.238Z,10.50
2022-11-28T13:19:28.539Z,10.83
2022-11-28T13:24:38.253Z,11.27
2022-11-28T13:29:47.327Z,11.93
2022-11-28T13:34:52.003Z,12.23
2022-11-28T13:40:00.851Z,11.80
2022-11-28T13:45:08.226Z,13.67
2022-11-28T13:50:34.938Z,13.37
2022-11-28T13:55:40.663Z,11.40
2022-11-28T14:00:44.350Z,11.73
2022-11-28T14:05:55.428Z,11.30
2022-11-28T14:11:24.236Z,11.67
2022-11-28T14:16:52.167Z,12.17
2022-11-28T14:22:11.027Z,11.70
2022-11-28T14:27:21.067Z,12.20
2022-11-28T14:32:36.709Z,11.37
2022-11-28T14:37:59.540Z,12.00
2022-11-28T14:43:22.675Z,12.57
2022-11-28T14:48:31.044Z,12.47
2022-11-28T14:53:45.406Z,12.73
2022-11-28T14:58:49.641Z,12.63
2022-11-28T15:04:00.092Z,13.23
2022-11-28T15:09:14.490Z,13.50
2022-11-28T15:14:22.904Z,11.33
2022-11-28T15:19:29.774Z,23.10
2022-11-28T15:24:36.168Z,11.97
2022-11-28T15:29:40.617Z,11.40
2022-11-28T15:34:45.331Z,12.80
2022-11-28T15:39:51.123Z,13.07
2022-11-28T15:44:57.542Z,12.67
2022-11-28T15:50:02.979Z,12.80
2022-11-28T15:55:17.709Z,12.30
2022-11-28T16:00:21.941Z,16.60
2022-11-28T16:05:25.093Z,13.20
2022-11-28T16:10:34.384Z,15.00
2022-11-28T16:15:38.148Z,13.73
2022-11-28T16:20:41.220Z,13.50
2022-11-28T16:25:46.932Z,14.87
2022-11-28T16:30:51.191Z,14.40
2022-11-28T16:35:54.163Z,14.00
2022-11-28T16:41:02.052Z,14.03
2022-11-28T16:46:07.820Z,13.23
2022-11-28T16:51:33.807Z,14.47
2022-11-28T16:56:45.402Z,14.17
2022-11-28T17:01:52.876Z,15.07
2022-11-28T17:06:57.620Z,13.23
2022-11-28T17:12:05.632Z,13.17
2022-11-28T17:17:13.342Z,14.20
2022-11-28T17:22:18.281Z,13.00
2022-11-28T17:27:22.650Z,13.57
2022-11-28T17:32:25.762Z,13.60
2022-11-28T17:37:28.620Z,16.43
2022-11-28T17:42:33.024Z,15.30
2022-11-28T17:47:35.975Z,13.23
2022-11-28T17:52:38.975Z,13.50
2022-11-28T17:57:44.040Z,16.60
2022-11-28T18:02:47.677Z,15.53
2022-11-28T18:07:50.734Z,16.20
2022-11-28T18:12:55.462Z,14.60
2022-11-28T18:18:01.616Z,18.13
2022-11-28T18:23:04.655Z,17.27
2022-11-28T18:28:08.947Z,14.17
2022-11-28T18:33:12.500Z,13.63
2022-11-28T18:38:15.436Z,13.90
2022-11-28T18:43:19.683Z,13.90
2022-11-28T18:48:22.541Z,14.23
2022-11-28T18:53:25.685Z,15.50
2022-11-28T18:58:30.782Z,17.50
2022-11-28T19:03:33.827Z,15.67
2022-11-28T19:08:37.569Z,16.27
2022-11-28T19:13:42.683Z,17.53
2022-11-28T19:18:46.958Z,19.10
2022-11-28T19:23:51.416Z,21.80
2022-11-28T19:28:57.534Z,21.93
2022-11-28T19:34:03.513Z,20.70
2022-11-28T19:39:08.259Z,19.97
2022-11-28T19:44:12.918Z,23.40
2022-11-28T19:49:19.406Z,23.07
2022-11-28T19:54:22.491Z,21.37
2022-11-28T19:59:27.361Z,22.23
2022-11-28T20:04:30.615Z,18.90
2022-11-28T20:09:33.916Z,17.60
2022-11-28T20:14:38.259Z,17.60
2022-11-28T20:19:41.645Z,15.90
2022-11-28T20:24:44.957Z,19.07
2022-11-28T20:29:49.361Z,15.47
2022-11-28T20:34:52.614Z,19.73
2022-11-28T20:39:57.367Z,19.70
2022-11-28T20:45:01.763Z,15.97
2022-11-28T20:50:07.110Z,13.23
2022-11-28T20:55:10.222Z,11.50
2022-11-28T21:00:15.814Z,17.60
2022-11-28T21:05:19.652Z,23.97
2022-11-28T21:10:22.611Z,13.87
2022-11-28T21:15:26.875Z,14.57
2022-11-28T21:20:29.834Z,15.87
2022-11-28T21:25:32.748Z,14.87
2022-11-28T21:30:41.224Z,14.07
2022-11-28T21:35:44.104Z,22.03
2022-11-28T21:40:53.246Z,24.00
2022-11-28T21:46:02.329Z,15.10
2022-11-28T21:51:06.445Z,15.03
2022-11-28T21:56:10.588Z,14.70
2022-11-28T22:01:15.944Z,14.53
2022-11-28T22:06:21.392Z,13.97
2022-11-28T22:11:25.192Z,14.13
2022-11-28T22:16:30.759Z,15.60
2022-11-28T22:21:54.002Z,12.97
2022-11-28T22:26:57.447Z,12.47
2022-11-28T22:32:01.759Z,11.50
2022-11-28T22:37:05.385Z,12.63
2022-11-28T22:42:08.432Z,12.30
2022-11-28T22:47:12.672Z,12.63
2022-11-28T22:52:15.606Z,13.43
2022-11-28T22:57:18.783Z,13.03
2022-11-28T23:02:23.613Z,12.93
2022-11-28T23:07:26.706Z,14.60
2022-11-28T23:12:29.816Z,15.17
2022-11-28T23:17:35.012Z,13.60
2022-11-28T23:22:37.978Z,12.93
2022-11-28T23:27:40.898Z,11.83
2022-11-28T23:32:46.049Z,12.40
2022-11-28T23:37:48.984Z,12.93
2022-11-28T23:42:51.946Z,11.93
2022-11-28T23:47:56.207Z,12.60
2022-11-28T23:52:59.158Z,12.67
2022-11-28T23:58:02.333Z,12.77
